Time;durP1;ratioP1;P1;durP2;ratioP2;P2;SDS_P1;SDS_P2;PMS_P1;PMS_P2;Temp;Humidity;BMP_temperature;BMP_pressure;BME280_temperature;BME280_humidity;BME280_pressure;Samples;Min_cycle;Max_cycle;Signal;HPM_P1;HPM_P2
2020/12/29 00:00:11;;;;;;;24.77;20.80;;;7.40;99.90;;;7.45;79.87;97890.94;5074473;28;20456;-75
2020/12/29 00:02:39;;;;;;;26.63;21.80;;;7.40;99.90;;;7.43;79.79;97891.91;5073174;28;20044;-75
2020/12/29 00:05:07;;;;;;;25.23;22.27;;;7.40;99.90;;;7.34;79.74;97864.19;5074340;28;20049;-75
2020/12/29 00:07:34;;;;;;;25.90;22.30;;;7.40;99.90;;;6.69;79.75;97768.72;5074298;28;20059;-75
2020/12/29 00:10:01;;;;;;;24.97;21.43;;;7.30;99.90;;;7.31;80.11;97880.09;5074334;28;20093;-75
2020/12/29 00:12:30;;;;;;;26.80;23.07;;;7.30;99.90;;;7.30;80.02;97891.50;5073904;28;20064;-75
2020/12/29 00:14:58;;;;;;;26.80;21.63;;;7.20;99.90;;;7.32;80.13;97889.69;5073854;28;20079;-76
2020/12/29 00:17:26;;;;;;;26.43;22.67;;;7.20;99.90;;;7.29;80.27;97895.06;5073936;28;20555;-76
2020/12/29 00:19:53;;;;;;;26.80;22.93;;;7.20;99.90;;;7.13;80.32;97867.66;5073842;28;20044;-75
2020/12/29 00:22:21;;;;;;;26.93;22.60;;;7.20;99.90;;;7.29;80.23;97895.06;5074075;28;20101;-75
2020/12/29 00:24:48;;;;;;;28.23;24.00;;;7.20;99.90;;;6.88;80.00;97831.00;5074032;28;20036;-75
2020/12/29 00:27:15;;;;;;;29.57;23.50;;;7.20;99.90;;;7.27;80.13;97910.03;5072692;28;20053;-75
2020/12/29 00:29:43;;;;;;;27.63;23.67;;;7.20;99.90;;;7.32;80.28;97905.44;5073701;28;20048;-75
2020/12/29 00:32:10;;;;;;;27.30;22.40;;;7.20;99.90;;;7.35;79.95;97915.00;5089471;28;20383;-76
2020/12/29 00:34:39;;;;;;;29.20;23.70;;;7.30;99.90;;;7.35;80.13;97917.63;5073503;28;20052;-75
2020/12/29 00:37:06;;;;;;;28.63;23.87;;;7.30;99.90;;;7.32;79.66;97905.44;5073550;28;20626;-75
2020/12/29 00:39:33;;;;;;;26.37;22.00;;;7.30;99.90;;;7.37;79.79;97915.78;5073713;28;20374;-75
2020/12/29 00:42:01;;;;;;;27.17;22.83;;;7.30;99.90;;;7.13;79.64;97884.28;5072388;28;20083;-76
2020/12/29 00:44:28;;;;;;;29.73;23.77;;;7.20;99.90;;;7.12;79.60;97894.88;5072063;28;20048;-76
2020/12/29 00:46:56;;;;;;;27.97;23.73;;;7.20;99.90;;;7.13;79.82;97918.47;5073590;28;20040;-75
2020/12/29 00:49:24;;;;;;;29.30;22.50;;;7.00;99.90;;;7.09;79.88;97918.63;5072193;28;20082;-75
2020/12/29 00:51:54;;;;;;;26.83;21.37;;;6.90;99.90;;;7.00;79.99;97919.84;5073514;28;20136;-76
2020/12/29 00:54:28;;;;;;;24.53;20.77;;;6.70;99.90;;;7.10;80.11;97920.34;5072122;28;20056;-75
2020/12/29 00:56:56;;;;;;;24.30;20.80;;;6.90;99.90;;;7.12;80.21;97921.16;5071797;28;20068;-75
2020/12/29 00:59:26;;;;;;;24.00;21.38;;;6.90;99.90;;;6.83;80.22;97874.09;5088449;28;20505;-76
2020/12/29 01:01:55;;;;;;;26.07;22.67;;;6.90;99.90;;;6.88;80.09;97896.66;5072215;28;20075;-75
2020/12/29 01:04:42;;;;;;;27.73;22.37;;;6.90;99.90;;;6.68;80.54;97924.56;5072814;28;20048;-76
2020/12/29 01:07:10;;;;;;;27.57;22.27;;;6.50;99.90;;;6.59;81.24;97927.50;5072973;28;20057;-75
2020/12/29 01:09:42;;;;;;;28.53;23.23;;;6.40;99.90;;;6.77;81.46;97926.84;5071895;28;20141;-76
2020/12/29 01:12:09;;;;;;;27.43;23.40;;;6.50;99.90;;;6.82;80.91;97927.53;5088694;28;20048;-75
2020/12/29 01:14:39;;;;;;;28.93;23.70;;;6.60;99.90;;;6.71;80.67;97890.31;5071310;28;20117;-75
2020/12/29 01:17:13;;;;;;;26.47;22.00;;;6.70;99.90;;;7.00;80.90;97932.97;5071777;28;20041;-76
2020/12/29 01:19:41;;;;;;;28.93;23.70;;;6.80;99.90;;;7.00;80.45;97943.50;5073013;28;20449;-75
2020/12/29 01:22:08;;;;;;;26.77;22.77;;;6.80;99.90;;;7.11;80.47;97940.44;5071629;28;20382;-76
2020/12/29 01:24:36;;;;;;;27.27;22.33;;;6.90;99.90;;;7.15;80.67;97947.28;5072871;28;20044;-75
2020/12/29 01:27:03;;;;;;;26.63;22.77;;;6.90;99.90;;;6.92;80.69;97900.88;5072823;28;20067;-76
2020/12/29 01:29:32;;;;;;;25.07;22.33;;;7.00;99.90;;;7.24;80.14;97953.06;5072527;28;20115;-75
2020/12/29 01:32:00;;;;;;;25.30;20.67;;;7.10;99.90;;;7.17;80.24;97937.59;5072480;28;20444;-75
2020/12/29 01:34:27;;;;;;;24.80;21.27;;;7.10;99.90;;;7.24;80.27;97960.06;5072384;28;20102;-75
2020/12/29 01:36:55;;;;;;;25.23;21.90;;;7.20;99.90;;;7.35;79.67;97949.16;5072380;28;20098;-76
2020/12/29 01:39:22;;;;;;;24.63;20.87;;;7.20;99.90;;;7.37;79.63;97953.47;5072380;28;20062;-75
2020/12/29 01:41:50;;;;;;;25.93;21.40;;;7.20;99.90;;;7.07;79.40;97900.28;5072346;28;20137;-75
2020/12/29 01:44:20;;;;;;;23.50;19.87;;;7.20;99.90;;;7.43;79.56;97953.22;5072663;28;20099;-75
2020/12/29 01:46:50;;;;;;;23.92;20.55;;;7.20;99.90;;;7.43;79.54;97961.13;5087965;28;20143;-75
2020/12/29 01:49:18;;;;;;;22.17;18.70;;;7.20;99.90;;;7.37;79.31;97949.97;5072861;28;20455;-76
2020/12/29 01:51:46;;;;;;;20.73;18.30;;;7.20;99.90;;;7.35;78.93;97944.78;5072443;28;20071;-75
2020/12/29 01:54:13;;;;;;;22.43;19.50;;;7.30;99.90;;;7.43;78.77;97976.88;5072443;28;20044;-75
2020/12/29 01:56:42;;;;;;;21.70;18.77;;;7.20;99.90;;;7.38;78.79;97968.31;5072396;28;20517;-76
2020/12/29 01:59:13;;;;;;;20.27;17.23;;;7.20;99.90;;;7.43;78.82;97976.88;5072379;28;20044;-75
2020/12/29 02:01:43;;;;;;;18.90;16.83;;;7.20;99.90;;;7.41;78.58;97981.34;5072477;28;20123;-75
2020/12/29 02:04:14;;;;;;;18.00;15.68;;;7.30;99.90;;;7.39;78.76;97979.69;5072042;28;20491;-75
2020/12/29 02:06:42;;;;;;;18.63;16.03;;;7.20;99.90;;;7.41;78.43;97976.09;5072402;28;20056;-75
2020/12/29 02:09:10;;;;;;;19.03;16.43;;;7.20;99.90;;;7.38;78.19;97983.22;5104666;28;20086;-76
2020/12/29 02:11:38;;;;;;;19.13;17.13;;;7.20;99.90;;;7.44;78.36;97983.84;5072282;28;20052;-76
2020/12/29 02:14:08;;;;;;;21.07;17.20;;;7.20;99.90;;;7.47;78.22;97986.34;5071983;28;20859;-75
2020/12/29 02:16:37;;;;;;;;;;;7.30;99.90;;;7.48;78.41;97989.84;5072299;28;20056;-75
2020/12/29 02:19:06;;;;;;;20.67;17.93;;;7.30;99.90;;;7.43;78.14;97991.81;5071947;28;19928;-75
2020/12/29 02:21:34;;;;;;;20.00;17.40;;;7.20;99.90;;;7.40;78.13;97998.03;5071901;28;20040;-75
2020/12/29 02:24:04;;;;;;;20.27;18.07;;;7.20;99.90;;;7.41;77.82;98033.94;5071907;28;20468;-76
2020/12/29 02:26:33;;;;;;;21.60;18.05;;;7.20;99.90;;;7.37;77.92;98016.56;5087733;28;20048;-76
2020/12/29 02:29:02;;;;;;;21.00;18.07;;;7.20;99.90;;;7.39;78.00;98016.50;5071847;28;20436;-75
2020/12/29 02:31:30;;;;;;;20.73;18.30;;;7.20;99.90;;;7.34;77.96;98005.31;5071793;28;20464;-75
2020/12/29 02:33:58;;;;;;;22.23;18.93;;;7.20;99.90;;;7.44;77.66;98033.81;5070758;28;20072;-75
2020/12/29 02:36:25;;;;;;;21.40;17.97;;;7.30;99.90;;;7.40;77.77;98018.19;5071699;28;20576;-75
2020/12/29 02:38:52;;;;;;;21.87;19.50;;;7.20;99.90;;;7.41;77.81;98020.78;5070667;28;20485;-75
2020/12/29 02:41:21;;;;;;;22.10;18.67;;;7.20;99.90;;;7.43;77.94;98040.00;5071690;28;20048;-76
2020/12/29 02:43:48;;;;;;;23.50;20.17;;;7.30;99.90;;;7.44;77.77;98023.28;5070505;28;20539;-75
2020/12/29 02:46:15;;;;;;;24.53;20.83;;;7.30;99.90;;;7.50;77.81;98025.69;5071658;28;20068;-76
2020/12/29 02:48:43;;;;;;;23.47;20.20;;;7.30;99.90;;;7.49;77.87;98023.97;5071632;28;20044;-75
2020/12/29 02:51:14;;;;;;;23.03;19.40;;;7.30;99.90;;;7.51;77.59;98031.81;5071631;28;20375;-75
2020/12/29 02:53:42;;;;;;;25.43;21.13;;;7.30;99.90;;;7.46;77.70;98034.59;5071685;28;20486;-75
2020/12/29 02:56:09;;;;;;;24.83;20.60;;;7.30;99.90;;;7.47;77.90;98035.47;5071749;28;20067;-75
2020/12/29 02:58:37;;;;;;;23.63;18.80;;;7.30;99.90;;;7.40;78.00;98045.34;5071854;28;20397;-76
2020/12/29 03:01:05;;;;;;;22.83;19.10;;;7.20;99.90;;;7.51;77.73;98040.53;5071828;28;20056;-76
2020/12/29 03:03:32;;;;;;;23.37;20.00;;;7.30;99.90;;;7.47;77.92;98036.31;5071743;28;20057;-76
2020/12/29 03:06:00;;;;;;;23.67;20.00;;;7.30;99.90;;;7.22;77.66;98003.97;5071781;28;20125;-75
2020/12/29 03:08:27;;;;;;;24.50;20.10;;;7.30;99.90;;;7.30;77.99;98020.31;5071452;28;20044;-76
2020/12/29 03:10:55;;;;;;;24.43;20.20;;;7.30;99.90;;;7.41;77.83;98039.19;5070341;28;20080;-75
2020/12/29 03:13:22;;;;;;;21.60;17.80;;;7.30;99.90;;;7.45;77.78;98059.19;5071267;28;20040;-75
2020/12/29 03:15:50;;;;;;;21.07;17.47;;;7.30;99.90;;;7.44;77.77;98054.84;5071058;28;20060;-76
2020/12/29 03:18:18;;;;;;;19.63;16.73;;;7.30;99.90;;;6.83;77.07;97980.00;5087399;28;20064;-76
2020/12/29 03:20:45;;;;;;;21.83;17.70;;;7.10;99.90;;;7.16;77.04;98026.06;5072010;28;20489;-76
2020/12/29 03:23:12;;;;;;;21.87;18.13;;;7.10;99.90;;;7.43;77.23;98061.03;5074885;28;20494;-75
2020/12/29 03:25:40;;;;;;;23.30;18.83;;;7.20;99.90;;;7.44;77.53;98067.97;5075145;28;20060;-75
2020/12/29 03:28:07;;;;;;;24.52;19.63;;;7.20;99.90;;;7.37;78.15;98048.09;5074869;28;20543;-75
2020/12/29 03:30:35;;;;;;;26.40;21.23;;;7.30;99.90;;;7.43;77.78;98055.75;5075098;28;20056;-75
2020/12/29 03:33:03;;;;;;;24.20;19.27;;;7.30;99.90;;;7.48;77.70;98063.47;5074789;28;20052;-75
2020/12/29 03:35:30;;;;;;;23.73;19.77;;;7.30;99.90;;;7.49;77.75;98071.28;5090518;28;20498;-75
2020/12/29 03:37:58;;;;;;;24.07;19.97;;;7.30;99.90;;;7.41;77.44;98093.53;5074993;28;20048;-75
2020/12/29 03:40:25;;;;;;;24.90;19.97;;;7.30;99.90;;;7.48;77.59;98084.50;5074915;28;20041;-75
2020/12/29 03:42:52;;;;;;;26.17;20.50;;;7.30;99.90;;;7.47;77.50;98082.78;5074554;28;20573;-75
2020/12/29 03:45:20;;;;;;;25.03;19.97;;;7.30;99.90;;;7.40;77.99;98060.25;5074504;28;20032;-75
2020/12/29 03:47:47;;;;;;;24.97;19.23;;;7.40;99.90;;;7.52;77.80;98092.22;5073562;28;20177;-75
2020/12/29 03:50:15;;;;;;;26.87;18.90;;;7.40;99.90;;;7.47;77.78;98083.63;5090246;28;20048;-75
2020/12/29 03:52:43;;;;;;;23.27;17.93;;;7.40;99.90;;;7.46;77.56;98087.19;5074414;28;20094;-75
2020/12/29 03:55:10;;;;;;;24.03;18.97;;;7.40;99.90;;;7.44;77.76;98083.75;5074604;28;20449;-75
2020/12/29 03:57:38;;;;;;;24.93;18.90;;;7.30;99.90;;;7.47;77.74;98090.69;5074368;28;20094;-75
2020/12/29 04:00:06;;;;;;;23.97;18.97;;;7.30;99.90;;;7.47;78.04;98091.50;5074289;28;20110;-75
2020/12/29 04:02:38;;;;;;;27.00;19.83;;;7.30;99.90;;;7.15;78.14;98044.53;5074340;28;20513;-76
2020/12/29 04:05:05;;;;;;;25.63;20.40;;;7.30;99.90;;;7.42;77.99;98095.22;5074423;28;20129;-75
2020/12/29 04:07:34;;;;;;;26.87;20.73;;;7.30;99.90;;;7.41;78.33;98104.03;5074411;28;20063;-75
2020/12/29 04:10:01;;;;;;;30.17;21.23;;;7.30;99.90;;;7.35;78.29;98096.38;5073051;28;20045;-75
2020/12/29 04:12:29;;;;;;;26.27;20.10;;;7.30;99.90;;;7.28;78.08;98090.47;5074214;28;20101;-75
2020/12/29 04:14:56;;;;;;;25.23;20.27;;;7.20;99.90;;;7.40;78.07;98103.19;5074294;28;20135;-75
2020/12/29 04:17:24;;;;;;;29.97;22.23;;;7.30;99.90;;;6.78;77.69;98002.09;5074236;28;20537;-75
2020/12/29 04:19:51;;;;;;;28.90;22.00;;;7.30;99.90;;;7.39;78.28;98109.38;5073915;28;20469;-75
2020/12/29 04:22:19;;;;;;;28.70;21.83;;;7.30;99.90;;;7.21;78.15;98083.72;5074136;28;20040;-75
2020/12/29 04:24:47;;;;;;;30.73;22.93;;;7.20;99.90;;;7.38;78.20;98115.53;5073832;28;20032;-76
2020/12/29 04:27:14;;;;;;;28.83;22.60;;;7.20;99.90;;;7.38;78.67;98112.03;5073740;28;20513;-75
2020/12/29 04:29:41;;;;;;;27.07;21.50;;;7.20;99.90;;;7.38;78.21;98126.03;5073752;28;20048;-75
2020/12/29 04:32:09;;;;;;;29.63;23.03;;;7.20;99.90;;;7.38;78.12;98128.66;5073686;28;20044;-75
2020/12/29 04:34:36;;;;;;;29.83;23.03;;;7.20;99.90;;;7.36;78.29;98127.00;5073864;28;20131;-76
2020/12/29 04:37:07;;;;;;;;;;;7.10;99.90;;;7.34;78.21;98127.06;5072894;28;20060;-76
2020/12/29 04:39:34;;;;;;;27.50;20.97;;;7.20;99.90;;;7.21;78.09;98117.91;5073500;28;20408;-75
2020/12/29 04:42:07;;;;;;;27.27;21.63;;;7.10;99.90;;;7.32;78.25;98135.00;5073500;28;20045;-75
2020/12/29 04:44:34;;;;;;;28.80;22.50;;;7.10;99.90;;;7.20;78.17;98190.63;5073904;28;20234;-75
2020/12/29 04:47:02;;;;;;;27.07;21.17;;;7.10;99.90;;;7.19;77.83;98120.59;5073626;28;20044;-75
2020/12/29 04:49:30;;;;;;;29.50;23.87;;;7.10;99.90;;;7.27;78.43;98138.72;5072266;28;20048;-75
2020/12/29 04:51:58;;;;;;;28.63;22.70;;;7.00;99.90;;;7.12;78.45;98110.34;5073486;28;20129;-76
2020/12/29 04:54:26;;;;;;;29.40;23.53;;;7.10;99.90;;;6.74;78.23;98047.75;5073430;28;20056;-76
2020/12/29 04:56:56;;;;;;;30.47;23.43;;;7.10;99.90;;;7.28;78.53;98149.16;5073080;28;20115;-75
2020/12/29 04:59:24;;;;;;;29.87;22.83;;;7.10;99.90;;;7.30;78.21;98155.22;5073071;28;20056;-75
2020/12/29 05:01:51;;;;;;;27.60;22.55;;;7.10;99.90;;;7.30;78.12;98155.22;5088984;28;20048;-76
2020/12/29 05:04:19;;;;;;;28.50;22.53;;;7.10;99.90;;;7.25;78.19;98153.69;5072960;28;20075;-75
2020/12/29 05:06:46;;;;;;;29.07;22.70;;;7.10;99.90;;;7.28;78.11;98164.06;5073211;28;20060;-75
2020/12/29 05:09:13;;;;;;;29.87;22.97;;;7.10;99.90;;;7.30;78.19;98170.13;5073145;28;20045;-75
2020/12/29 05:11:41;;;;;;;29.53;22.93;;;7.10;99.90;;;7.07;77.92;98138.53;5072832;28;20121;-76
2020/12/29 05:14:08;;;;;;;28.67;22.70;;;7.10;99.90;;;7.11;77.90;98174.31;5071368;28;20143;-75
2020/12/29 05:16:39;;;;;;;31.00;23.90;;;7.00;99.90;;;7.11;78.35;98185.69;5073114;28;20040;-75
2020/12/29 05:19:08;;;;;;;29.40;23.05;;;6.90;99.90;;;7.14;78.22;98177.69;5073078;28;20044;-74
2020/12/29 05:21:38;;;;;;;29.13;22.23;;;6.90;99.90;;;7.19;78.40;98185.44;5088558;28;20044;-75
2020/12/29 05:24:11;;;;;;;28.95;22.75;;;7.00;99.90;;;7.20;78.50;98189.78;5072649;28;20045;-76
2020/12/29 05:26:41;;;;;;;28.50;21.50;;;7.00;99.90;;;7.19;78.50;98188.06;5072629;28;20059;-75
2020/12/29 05:29:12;;;;;;;30.63;22.60;;;7.00;99.90;;;5.64;78.36;97928.13;5072802;28;20041;-75
2020/12/29 05:31:42;;;;;;;30.43;23.40;;;7.00;99.90;;;6.99;78.24;98175.59;5071490;28;20063;-75
2020/12/29 05:34:19;;;;;;;30.02;23.20;;;7.00;99.90;;;7.13;78.23;98189.13;5072481;28;20044;-76
2020/12/29 05:36:48;;;;;;;28.63;22.40;;;6.90;99.90;;;6.99;78.21;98180.84;5072418;28;20049;-73
2020/12/29 05:39:21;;;;;;;30.47;23.47;;;7.00;99.90;;;7.04;78.25;98205.22;5072415;28;20134;-75
2020/12/29 05:41:50;;;;;;;31.27;23.50;;;6.90;99.90;;;7.12;78.15;98200.53;5072379;28;20087;-75
2020/12/29 05:44:26;;;;;;;31.93;23.60;;;6.90;99.90;;;7.12;78.09;98207.56;5072280;28;20055;-76
2020/12/29 05:46:55;;;;;;;29.87;23.00;;;6.90;99.90;;;7.12;78.15;98207.56;5071337;28;20095;-75
2020/12/29 05:49:24;;;;;;;29.73;22.63;;;6.90;99.90;;;7.16;77.87;98211.81;5072537;28;20052;-75
2020/12/29 05:51:53;;;;;;;31.37;23.53;;;7.00;99.90;;;7.15;78.12;98215.34;5072278;28;20441;-75
2020/12/29 05:54:22;;;;;;;30.00;23.50;;;7.00;99.90;;;7.16;78.10;98217.09;5072216;28;20119;-75
2020/12/29 05:56:50;;;;;;;29.80;23.20;;;7.00;99.90;;;7.15;78.00;98217.97;5072334;28;20098;-75
2020/12/29 05:59:18;;;;;;;28.33;22.07;;;7.00;99.90;;;7.06;78.00;98211.28;5072421;28;20071;-76
2020/12/29 06:01:49;;;;;;;31.53;23.23;;;7.00;99.90;;;7.10;77.77;98220.75;5072093;28;20517;-76
2020/12/29 06:04:18;;;;;;;30.70;23.80;;;7.00;99.90;;;7.10;77.75;98225.16;5072346;28;20456;-75
2020/12/29 06:06:47;;;;;;;30.07;22.60;;;6.90;99.90;;;7.07;77.78;98228.75;5072297;28;20044;-75
2020/12/29 06:09:17;;;;;;;25.33;19.10;;;6.90;99.90;;;7.02;77.97;98243.81;5072336;28;20130;-75
2020/12/29 06:11:55;;;;;;;30.43;23.10;;;6.90;99.90;;;7.03;77.93;98240.25;5072022;28;20414;-75
2020/12/29 06:14:24;;;;;;;29.03;22.40;;;6.80;99.90;;;7.02;78.27;98232.44;5071772;28;20090;-76
2020/12/29 06:16:53;;;;;;;32.00;23.80;;;6.80;99.90;;;7.04;78.28;98242.00;5072224;28;20041;-75
2020/12/29 06:19:24;;;;;;;30.10;23.03;;;6.90;99.90;;;7.06;78.19;98247.19;5072226;28;20391;-75
2020/12/29 06:22:06;;;;;;;31.67;23.90;;;6.90;99.90;;;7.02;78.37;98242.94;5072242;28;20105;-76
2020/12/29 06:24:35;;;;;;;32.77;23.17;;;6.90;99.90;;;7.06;78.26;98252.44;5072210;28;20043;-76
2020/12/29 06:27:05;;;;;;;29.90;22.67;;;6.90;99.90;;;7.12;78.17;98255.72;5072066;28;20068;-75
2020/12/29 06:29:37;;;;;;;31.33;22.30;;;6.90;99.90;;;7.17;78.17;98259.06;5070833;28;20053;-76
2020/12/29 06:32:12;;;;;;;32.77;24.33;;;7.00;99.90;;;4.78;77.65;97845.25;5071851;28;20037;-75
2020/12/29 06:34:42;;;;;;;33.33;24.33;;;7.00;99.90;;;7.01;78.08;98230.69;5072358;28;20123;-76
2020/12/29 06:37:18;;;;;;;33.17;23.98;;;7.00;99.90;;;7.20;77.64;98264.22;5071983;28;20048;-75
2020/12/29 06:39:50;;;;;;;30.87;24.07;;;7.00;99.90;;;7.20;77.86;98269.47;5072027;28;20041;-75
2020/12/29 06:42:18;;;;;;;33.57;25.27;;;7.00;99.90;;;6.50;77.89;98153.59;5071717;28;20394;-75
2020/12/29 06:44:53;;;;;;;32.10;22.73;;;7.00;99.90;;;6.07;77.64;98094.59;5071504;28;20157;-75
2020/12/29 06:47:23;;;;;;;30.70;23.40;;;7.00;99.90;;;7.20;78.12;98279.16;5071660;28;20094;-75
2020/12/29 06:49:53;;;;;;;32.55;25.30;;;7.00;99.90;;;7.23;77.71;98277.28;5070664;28;20555;-75
2020/12/29 06:52:32;;;;;;;31.63;24.53;;;7.00;99.90;;;7.08;78.01;98255.88;5071846;28;20079;-75
2020/12/29 06:55:01;;;;;;;30.73;23.83;;;7.10;99.90;;;6.62;77.77;98232.81;5070631;28;20048;-75
2020/12/29 06:57:47;;;;;;;32.13;23.50;;;7.10;99.90;;;7.24;77.75;98283.38;5074988;28;20098;-75
2020/12/29 07:00:23;;;;;;;30.27;22.83;;;7.00;99.90;;;7.18;77.74;98280.97;5075472;28;20044;-76
2020/12/29 07:02:53;;;;;;;31.37;23.47;;;7.00;99.90;;;7.13;77.52;98282.88;5075693;28;20048;-75
2020/12/29 07:05:23;;;;;;;28.25;21.92;;;7.00;99.90;;;7.17;77.73;98298.50;5075940;28;20075;-75
2020/12/29 07:07:57;;;;;;;28.33;22.45;;;7.00;99.90;;;7.04;77.64;98288.41;5075296;28;20098;-75
2020/12/29 07:10:34;;;;;;;27.33;20.73;;;7.00;99.90;;;7.07;77.78;98315.47;5074244;28;20048;-75
2020/12/29 07:13:07;;;;;;;27.87;21.30;;;6.80;99.90;;;7.06;77.95;98323.41;5075096;28;20049;-75
2020/12/29 07:15:47;;;;;;;27.73;21.60;;;6.80;99.90;;;7.06;78.10;98333.91;5107739;28;20475;-75
2020/12/29 07:18:19;;;;;;;29.03;22.33;;;6.80;99.90;;;7.05;78.19;98329.53;5075149;28;20044;-75
2020/12/29 07:20:49;;;;;;;28.33;21.63;;;6.80;99.90;;;7.08;78.35;98332.09;5075062;28;20051;-75
2020/12/29 07:23:18;;;;;;;30.20;22.38;;;6.90;99.90;;;7.11;77.93;98345.13;5075217;28;20355;-76
2020/12/29 07:25:47;;;;;;;29.97;21.83;;;6.90;99.90;;;7.12;77.93;98349.50;5075152;28;20059;-75
2020/12/29 07:28:17;;;;;;;26.33;20.20;;;7.00;99.90;;;7.11;77.80;98358.25;5074800;28;20110;-75
2020/12/29 07:30:45;;;;;;;24.85;19.42;;;7.00;99.90;;;6.89;77.90;98318.66;5075470;28;20044;-75
2020/12/29 07:33:12;;;;;;;25.87;20.37;;;6.90;99.90;;;7.06;77.75;98365.44;5075030;28;20048;-80
2020/12/29 07:35:40;;;;;;;27.03;19.27;;;6.90;99.90;;;7.06;77.71;98368.94;5074848;28;20379;-79
2020/12/29 07:38:13;;;;;;;27.20;20.70;;;6.90;99.90;;;7.08;78.05;98376.75;5075030;28;20052;-78
2020/12/29 07:40:41;;;;;;;24.13;19.37;;;6.90;99.90;;;7.06;77.57;98383.84;5075642;28;20474;-78
2020/12/29 07:43:09;;;;;;;26.67;20.67;;;6.90;99.90;;;7.05;77.60;98384.72;5074854;28;20098;-77
2020/12/29 07:45:37;;;;;;;29.03;21.73;;;6.80;99.90;;;6.98;77.27;98381.44;5074790;28;20048;-77
2020/12/29 07:48:07;;;;;;;27.23;21.13;;;6.80;99.90;;;6.94;77.64;98389.44;5074488;28;20064;-74
2020/12/29 07:50:37;;;;;;;29.25;21.73;;;6.70;99.90;;;6.86;77.26;98389.69;5073490;28;20055;-76
2020/12/29 07:53:06;;;;;;;26.93;20.93;;;6.60;99.90;;;6.85;77.53;98395.00;5074484;28;20041;-72
2020/12/29 07:55:35;;;;;;;31.60;22.65;;;6.60;99.90;;;6.79;77.76;98392.53;5073478;28;20099;-72
2020/12/29 07:58:03;;;;;;;27.80;21.63;;;6.60;99.90;;;6.72;77.71;98390.97;5074276;28;20460;-73
2020/12/29 08:00:33;;;;;;;27.07;21.20;;;6.50;99.90;;;6.71;77.94;98400.63;5074554;28;20044;-77
2020/12/29 08:03:00;;;;;;;26.90;21.00;;;6.50;99.90;;;6.77;78.20;98397.84;5074369;28;20059;-72
2020/12/29 08:05:29;;;;;;;25.57;19.70;;;6.50;99.90;;;6.62;78.21;98366.75;5074195;28;20052;-73
2020/12/29 08:08:01;;;;;;;26.20;19.63;;;6.60;99.90;;;6.88;78.47;98398.38;5074207;28;20051;-72
2020/12/29 08:10:31;;;;;;;27.37;20.77;;;6.60;99.90;;;6.87;78.08;98407.16;5072926;28;20473;-72
2020/12/29 08:13:03;;;;;;;29.80;21.85;;;6.70;99.90;;;6.81;78.47;98411.75;5106822;28;20144;-72
2020/12/29 08:15:33;;;;;;;26.27;20.40;;;6.60;99.90;;;6.72;78.30;98404.97;5074231;28;20053;-75
2020/12/29 08:18:06;;;;;;;25.33;19.67;;;6.60;99.90;;;6.84;78.37;98416.88;5073951;28;20480;-73
2020/12/29 08:20:44;;;;;;;26.17;19.80;;;6.60;99.90;;;6.71;78.60;98410.28;5072952;28;20052;-73
2020/12/29 08:23:12;;;;;;;27.43;20.50;;;6.60;99.90;;;6.72;78.44;98417.22;5073877;28;20093;-72
2020/12/29 08:25:40;;;;;;;29.30;21.07;;;6.60;99.90;;;6.77;78.53;98403.09;5073820;28;20044;-72
2020/12/29 08:28:09;;;;;;;29.00;20.90;;;6.70;99.90;;;6.84;78.76;98428.28;5074022;28;20044;-72
2020/12/29 08:30:36;;;;;;;28.60;20.57;;;6.70;99.90;;;6.37;78.17;98358.72;5073707;28;20094;-72
2020/12/29 08:33:06;;;;;;;29.30;21.33;;;6.80;99.90;;;6.88;78.40;98431.66;5073594;28;20094;-73
2020/12/29 08:35:44;;;;;;;27.97;20.03;;;6.90;99.90;;;7.06;78.69;98444.28;5072396;28;20059;-72
2020/12/29 08:38:45;;;;;;;28.70;21.53;;;6.90;99.90;;;7.13;78.49;98433.53;5073360;28;20044;-73
2020/12/29 08:41:22;;;;;;;30.50;20.73;;;7.00;99.90;;;7.20;78.87;98450.81;5073720;28;20060;-72
2020/12/29 08:43:52;;;;;;;30.30;21.77;;;7.10;99.90;;;7.34;78.00;98446.94;5073224;28;20425;-72
2020/12/29 08:46:21;;;;;;;28.25;21.10;;;7.20;99.90;;;7.41;78.20;98457.22;5072271;28;20056;-72
2020/12/29 08:48:56;;;;;;;26.33;20.57;;;7.20;99.90;;;7.34;77.61;98433.81;5073544;28;20131;-72
2020/12/29 08:51:28;;;;;;;27.30;21.07;;;7.30;99.90;;;7.52;77.89;98464.75;5073121;28;20044;-72
2020/12/29 08:54:08;;;;;;;28.37;21.13;;;7.30;99.90;;;7.48;77.79;98466.63;5073435;28;20052;-72
2020/12/29 08:56:36;;;;;;;29.83;22.53;;;7.30;99.90;;;7.55;77.66;98470.78;5073048;28;20052;-87
2020/12/29 08:59:12;;;;;;;29.83;21.70;;;7.30;99.90;;;7.56;77.52;98469.91;5073323;28;20448;-73
2020/12/29 09:01:42;;;;;;;33.97;24.33;;;7.30;99.90;;;7.56;77.73;98480.41;5072945;28;20486;-73
2020/12/29 09:04:24;;;;;;;33.67;25.50;;;7.30;99.90;;;7.44;77.72;98454.50;5073268;28;20068;-74
2020/12/29 09:07:03;;;;;;;34.67;26.20;;;7.30;99.90;;;7.64;77.92;98488.94;5071919;28;20379;-73
2020/12/29 09:09:33;;;;;;;36.30;26.25;;;7.40;99.90;;;7.68;77.95;98495.81;5073048;28;20573;-74
2020/12/29 09:12:12;;;;;;;35.80;26.80;;;7.40;99.90;;;7.47;77.95;98445.66;5071487;28;20055;-74
2020/12/29 09:14:52;;;;;;;39.90;28.07;;;7.50;99.90;;;7.76;78.01;98491.16;5071364;28;20045;-73
2020/12/29 09:17:21;;;;;;;35.80;26.38;;;7.50;99.90;;;5.74;78.34;98158.53;5073025;28;20044;-73
2020/12/29 09:20:10;;;;;;;34.30;26.42;;;7.60;99.90;;;7.63;78.44;98458.25;5071914;28;20409;-74
2020/12/29 09:23:02;;;;;;;37.37;26.67;;;7.70;99.90;;;7.84;78.33;98512.84;5072513;28;20449;-73
2020/12/29 09:25:33;;;;;;;40.78;27.08;;;7.70;99.90;;;7.92;78.35;98510.81;5105200;28;20494;-72
2020/12/29 09:28:09;;;;;;;34.83;26.70;;;7.70;99.90;;;7.96;78.52;98508.94;5072492;28;20055;-73
2020/12/29 09:30:43;;;;;;;34.10;27.00;;;7.70;99.90;;;7.99;78.82;98520.22;5072455;28;20032;-73
2020/12/29 09:33:11;;;;;;;37.25;27.95;;;7.80;99.90;;;7.86;78.83;98487.34;5072541;28;20141;-73
2020/12/29 09:35:38;;;;;;;38.90;28.80;;;7.80;99.90;;;8.02;78.96;98517.53;5071272;28;20425;-73
2020/12/29 09:38:06;;;;;;;39.08;28.77;;;7.80;99.90;;;7.95;78.64;98531.81;5072204;28;20072;-73
2020/12/29 09:40:53;;;;;;;36.95;28.45;;;7.80;99.90;;;8.06;78.61;98529.69;5072595;28;20371;-73
2020/12/29 09:43:21;;;;;;;39.10;28.77;;;7.90;99.90;;;8.17;78.88;98535.44;5072395;28;20494;-73
2020/12/29 09:45:50;;;;;;;39.63;29.45;;;7.90;99.90;;;8.23;78.84;98538.81;5072482;28;20045;-73
2020/12/29 09:48:18;;;;;;;38.97;28.88;;;8.00;99.90;;;8.25;78.76;98544.91;5071172;28;20090;-73
2020/12/29 09:50:46;;;;;;;40.17;29.33;;;8.10;99.90;;;8.16;79.12;98530.25;5072348;28;20056;-73
2020/12/29 09:53:14;;;;;;;43.40;30.23;;;8.10;99.90;;;8.08;79.21;98530.50;5072173;28;20040;-73
2020/12/29 09:55:41;;;;;;;42.00;29.58;;;8.00;99.90;;;8.19;79.84;98557.31;5072074;28;20043;-73
2020/12/29 09:58:09;;;;;;;40.50;28.83;;;7.90;99.90;;;8.21;80.02;98562.53;5072276;28;20033;-73
2020/12/29 10:00:36;;;;;;;39.97;29.35;;;8.00;99.90;;;8.23;80.01;98564.22;5072483;28;20044;-74
2020/12/29 10:03:06;;;;;;;35.22;27.48;;;8.00;99.90;;;8.26;80.03;98575.59;5072714;28;20048;-74
2020/12/29 10:05:34;;;;;;;33.22;26.17;;;8.00;99.90;;;7.97;80.06;98526.47;5072424;28;20143;-69
2020/12/29 10:08:01;;;;;;;31.67;23.27;;;8.10;99.90;;;8.23;80.30;98609.91;5071008;28;20053;-70
2020/12/29 10:10:29;;;;;;;23.53;20.27;;;8.10;99.90;;;8.16;80.40;98585.53;5072267;28;20101;-68
2020/12/29 10:12:56;;;;;;;21.47;18.33;;;8.00;99.90;;;8.13;80.64;98591.75;5072032;28;20492;-68
2020/12/29 10:15:24;;;;;;;24.23;17.87;;;7.90;99.90;;;8.08;80.56;98587.53;5072271;28;20084;-73
2020/12/29 10:17:51;;;;;;;19.63;16.80;;;7.90;99.90;;;8.11;80.94;98592.69;5071874;28;20413;-81
2020/12/29 10:20:21;;;;;;;23.45;17.35;;;7.90;99.90;;;8.02;81.33;98592.97;5072104;28;20048;-78
2020/12/29 10:22:48;;;;;;;22.55;17.17;;;7.80;99.90;;;8.06;81.20;98599.88;5071981;28;20049;-77
2020/12/29 10:25:16;;;;;;;19.02;16.38;;;7.90;99.90;;;8.21;81.38;98599.41;5071856;28;20063;-78
2020/12/29 10:27:45;;;;;;;21.53;16.73;;;7.90;99.90;;;8.31;81.50;98602.63;5070687;28;20040;-78
2020/12/29 10:30:13;;;;;;;20.75;16.90;;;8.10;99.90;;;8.36;81.65;98611.25;5073242;28;20508;-73